createdAt,value
2023-01-25T00:00:13.020Z,24.58
2023-01-25T00:03:26.027Z,21.55
2023-01-25T00:06:29.997Z,20.70
2023-01-25T00:09:33.435Z,17.92
2023-01-25T00:16:05.402Z,22.65
2023-01-25T00:19:09.928Z,27.08
2023-01-25T00:32:15.991Z,25.48
2023-01-25T00:35:20.130Z,20.20
2023-01-25T00:38:35.515Z,20.85
2023-01-25T00:44:59.839Z,20.30
2023-01-25T00:48:02.393Z,19.42
2023-01-25T00:51:09.266Z,17.13
2023-01-25T00:54:13.716Z,19.08
2023-01-25T00:57:16.113Z,23.58
2023-01-25T01:00:19.079Z,20.25
2023-01-25T01:03:26.055Z,20.52
2023-01-25T01:09:47.094Z,17.30
2023-01-25T01:12:49.376Z,21.80
2023-01-25T01:15:52.335Z,14.65
2023-01-25T01:18:54.800Z,16.05
2023-01-25T01:22:05.369Z,18.83
2023-01-25T01:25:24.482Z,21.23
2023-01-25T01:31:30.588Z,21.10
2023-01-25T01:34:53.335Z,19.55
2023-01-25T01:37:56.109Z,18.50
2023-01-25T01:44:21.168Z,17.48
2023-01-25T01:47:42.484Z,14.20
2023-01-25T01:50:45.092Z,17.08
2023-01-25T01:54:02.011Z,18.88
2023-01-25T02:00:39.987Z,20.73
2023-01-25T02:07:11.398Z,18.73
2023-01-25T02:10:17.178Z,22.25
2023-01-25T02:13:23.361Z,18.08
2023-01-25T02:16:30.175Z,20.25
2023-01-25T02:19:50.427Z,18.73
2023-01-25T02:22:53.509Z,21.48
2023-01-25T02:26:02.529Z,17.08
2023-01-25T02:29:07.424Z,18.40
2023-01-25T02:32:10.201Z,23.48
2023-01-25T02:35:32.927Z,21.40
2023-01-25T02:38:46.664Z,17.08
2023-01-25T02:41:56.380Z,19.60
2023-01-25T02:45:04.518Z,22.25
2023-01-25T02:54:42.774Z,18.38
2023-01-25T02:57:47.368Z,18.45
2023-01-25T03:00:53.375Z,20.27
2023-01-25T03:03:58.980Z,21.35
2023-01-25T03:10:20.071Z,28.52
2023-01-25T03:13:23.092Z,21.08
2023-01-25T03:16:31.276Z,18.15
2023-01-25T03:19:34.956Z,18.55
2023-01-25T03:22:37.698Z,18.75
2023-01-25T03:25:39.876Z,21.20
2023-01-25T03:28:47.156Z,20.02
2023-01-25T03:31:49.624Z,21.38
2023-01-25T03:34:51.780Z,23.40
2023-01-25T03:37:54.900Z,17.80
2023-01-25T03:40:57.725Z,26.17
2023-01-25T03:44:00.375Z,23.70
2023-01-25T03:47:03.523Z,23.10
2023-01-25T03:50:07.337Z,15.80
2023-01-25T03:53:27.048Z,23.45
2023-01-25T03:56:31.008Z,17.42
2023-01-25T03:59:40.628Z,24.77
2023-01-25T04:02:42.819Z,24.98
2023-01-25T04:05:48.956Z,23.20
2023-01-25T04:08:51.873Z,22.05
2023-01-25T04:11:55.579Z,19.10
2023-01-25T04:14:57.927Z,19.23
2023-01-25T04:18:01.459Z,20.10
2023-01-25T04:21:04.827Z,18.50
2023-01-25T04:24:08.460Z,19.80
2023-01-25T04:27:14.629Z,19.88
2023-01-25T04:30:27.727Z,24.17
2023-01-25T04:33:31.383Z,23.35
2023-01-25T04:36:37.408Z,22.05
2023-01-25T04:39:40.684Z,20.85
2023-01-25T04:42:44.536Z,21.48
2023-01-25T04:45:47.251Z,20.60
2023-01-25T04:48:57.707Z,18.10
2023-01-25T04:52:00.152Z,22.17
2023-01-25T04:55:02.927Z,19.55
2023-01-25T04:58:12.326Z,18.60
2023-01-25T05:01:14.473Z,20.90
2023-01-25T05:04:17.162Z,24.40
2023-01-25T05:07:21.773Z,22.45
2023-01-25T05:10:24.065Z,19.17
2023-01-25T05:13:49.115Z,21.35
2023-01-25T05:16:56.356Z,19.48
2023-01-25T05:19:58.518Z,21.80
2023-01-25T05:23:00.691Z,19.38
2023-01-25T05:26:23.363Z,19.33
2023-01-25T05:29:25.929Z,22.02
2023-01-25T05:32:34.289Z,24.30
2023-01-25T05:35:37.135Z,20.48
2023-01-25T05:38:39.665Z,19.27
2023-01-25T05:41:44.621Z,17.77
2023-01-25T05:44:47.905Z,18.55
2023-01-25T05:47:55.198Z,22.70
2023-01-25T05:51:00.407Z,20.38
2023-01-25T05:54:04.274Z,22.40
2023-01-25T05:57:06.336Z,19.63
2023-01-25T06:00:11.096Z,20.40
2023-01-25T06:03:16.865Z,23.90
2023-01-25T06:06:20.066Z,21.10
2023-01-25T06:09:22.663Z,21.88
2023-01-25T06:12:26.182Z,31.13
2023-01-25T06:15:28.450Z,24.13
2023-01-25T06:18:39.109Z,26.52
2023-01-25T06:21:50.965Z,21.50
2023-01-25T06:24:54.502Z,24.52
2023-01-25T06:27:56.649Z,24.25
2023-01-25T06:31:10.174Z,25.48
2023-01-25T06:34:14.176Z,23.27
2023-01-25T06:37:16.311Z,22.75
2023-01-25T06:40:18.574Z,20.50
2023-01-25T06:43:21.722Z,23.80
2023-01-25T06:46:24.010Z,19.90
2023-01-25T06:49:26.127Z,22.80
2023-01-25T06:52:28.179Z,21.52
2023-01-25T06:55:30.325Z,17.65
2023-01-25T06:58:33.182Z,25.90
2023-01-25T07:01:35.413Z,18.27
2023-01-25T07:04:37.616Z,27.48
2023-01-25T07:07:39.542Z,25.00
2023-01-25T07:10:41.844Z,25.40
2023-01-25T07:13:48.811Z,19.20
2023-01-25T07:16:50.927Z,21.65
2023-01-25T07:19:52.960Z,21.10
2023-01-25T07:22:55.059Z,24.80
2023-01-25T07:25:58.565Z,20.85
2023-01-25T07:29:00.750Z,25.77
2023-01-25T07:32:03.762Z,23.42
2023-01-25T07:35:07.189Z,22.67
2023-01-25T07:38:09.557Z,23.63
2023-01-25T07:41:11.892Z,32.85
2023-01-25T07:44:14.115Z,30.70
2023-01-25T07:47:21.136Z,23.77
2023-01-25T07:50:23.181Z,16.90
2023-01-25T07:53:25.419Z,26.75
2023-01-25T07:56:32.526Z,19.98
2023-01-25T07:59:35.589Z,23.58
2023-01-25T08:02:37.733Z,27.15
2023-01-25T08:05:45.028Z,25.42
2023-01-25T08:08:49.410Z,22.05
2023-01-25T08:11:53.671Z,18.40
2023-01-25T08:14:55.851Z,22.35
2023-01-25T08:18:00.219Z,22.10
2023-01-25T08:21:02.261Z,18.73
2023-01-25T08:24:06.559Z,20.80
2023-01-25T08:27:08.699Z,19.67
2023-01-25T08:30:12.857Z,19.90
2023-01-25T08:33:14.813Z,21.83
2023-01-25T08:36:18.687Z,26.67
2023-01-25T08:39:20.794Z,17.02
2023-01-25T08:42:24.227Z,21.15
2023-01-25T08:45:26.376Z,26.13
2023-01-25T08:48:28.742Z,20.48
2023-01-25T08:51:32.674Z,18.63
2023-01-25T08:54:34.792Z,23.50
2023-01-25T08:57:36.893Z,21.38
2023-01-25T09:00:40.524Z,29.77
2023-01-25T09:03:47.938Z,21.60
2023-01-25T09:06:50.060Z,28.33
2023-01-25T09:09:52.090Z,26.55
2023-01-25T09:12:54.212Z,24.63
2023-01-25T09:16:10.265Z,22.42
2023-01-25T09:19:12.295Z,23.92
2023-01-25T09:22:14.278Z,23.35
2023-01-25T09:25:16.497Z,28.10
2023-01-25T09:28:18.461Z,23.98
2023-01-25T09:31:23.613Z,29.05
2023-01-25T09:34:46.752Z,26.77
2023-01-25T09:37:51.823Z,22.52
2023-01-25T09:41:12.081Z,25.33
2023-01-25T09:44:46.741Z,23.75
2023-01-25T09:48:08.262Z,21.48
2023-01-25T09:51:13.031Z,24.33
2023-01-25T09:54:18.476Z,23.05
2023-01-25T09:57:36.962Z,22.20
2023-01-25T10:00:45.366Z,24.23
2023-01-25T10:03:58.656Z,24.83
2023-01-25T10:07:19.910Z,20.98
2023-01-25T10:10:30.482Z,24.35
2023-01-25T10:13:32.511Z,20.45
2023-01-25T10:16:46.816Z,27.52
2023-01-25T10:19:52.032Z,22.10
2023-01-25T10:23:42.111Z,30.75
2023-01-25T10:26:48.464Z,26.52
2023-01-25T10:29:55.366Z,26.40
2023-01-25T10:33:13.826Z,29.15
2023-01-25T10:36:25.713Z,25.07
2023-01-25T10:39:29.290Z,32.33
2023-01-25T10:42:38.374Z,35.55
2023-01-25T10:45:43.235Z,24.17
2023-01-25T10:48:45.405Z,29.42
2023-01-25T10:51:47.503Z,27.73
2023-01-25T10:55:04.958Z,26.05
2023-01-25T10:58:46.814Z,26.45
2023-01-25T11:01:49.094Z,34.40
2023-01-25T11:04:51.184Z,28.30
2023-01-25T11:07:53.965Z,28.83
2023-01-25T11:10:56.936Z,29.92
2023-01-25T11:13:59.143Z,22.67
2023-01-25T11:17:03.693Z,33.85
2023-01-25T11:20:25.930Z,28.25
2023-01-25T11:23:28.170Z,24.17
2023-01-25T11:26:32.343Z,25.98
2023-01-25T11:29:34.391Z,41.70
2023-01-25T11:32:39.627Z,23.52
2023-01-25T11:35:59.771Z,23.33
2023-01-25T11:39:26.543Z,34.58
2023-01-25T11:42:42.934Z,26.58
2023-01-25T11:45:55.553Z,21.95
2023-01-25T11:49:15.028Z,22.42
2023-01-25T11:53:04.317Z,27.52
2023-01-25T11:56:23.447Z,27.90
2023-01-25T12:02:46.946Z,24.55
2023-01-25T12:06:00.765Z,19.77
2023-01-25T12:09:02.853Z,17.00
2023-01-25T12:12:32.018Z,24.90
2023-01-25T12:15:57.082Z,21.67
2023-01-25T12:19:11.149Z,29.35
2023-01-25T12:22:34.634Z,21.85
2023-01-25T12:26:03.823Z,23.10
2023-01-25T12:29:29.904Z,28.42
2023-01-25T12:32:39.321Z,22.27
2023-01-25T12:35:57.446Z,16.90
2023-01-25T12:38:59.426Z,16.85
2023-01-25T12:42:13.523Z,17.92
2023-01-25T12:45:28.737Z,17.77
2023-01-25T12:48:37.000Z,15.15
2023-01-25T12:51:42.041Z,16.60
2023-01-25T12:54:45.769Z,18.33
2023-01-25T12:58:21.614Z,19.80
2023-01-25T13:01:31.850Z,19.15
2023-01-25T13:05:03.788Z,26.38
2023-01-25T13:08:53.236Z,17.88
2023-01-25T13:11:55.570Z,18.30
2023-01-25T13:14:57.681Z,23.42
2023-01-25T13:17:59.807Z,20.17
2023-01-25T13:21:11.477Z,24.88
2023-01-25T13:24:19.778Z,20.80
2023-01-25T13:27:27.232Z,26.77
2023-01-25T13:30:34.610Z,16.90
2023-01-25T13:33:37.170Z,21.65
2023-01-25T13:36:42.013Z,19.23
2023-01-25T13:39:55.488Z,19.77
2023-01-25T13:43:19.528Z,21.70
2023-01-25T13:46:25.441Z,15.98
2023-01-25T13:49:36.422Z,24.33
2023-01-25T13:52:38.526Z,20.63
2023-01-25T13:55:46.598Z,18.02
2023-01-25T13:58:48.803Z,24.65
2023-01-25T14:01:51.668Z,23.92
2023-01-25T14:05:01.100Z,22.70
2023-01-25T14:08:05.478Z,19.15
2023-01-25T14:11:08.211Z,22.33
2023-01-25T14:14:33.366Z,23.58
2023-01-25T14:17:35.516Z,17.98
2023-01-25T14:20:37.671Z,26.60
2023-01-25T14:23:45.334Z,25.00
2023-01-25T14:26:47.895Z,22.60
2023-01-25T14:29:51.411Z,19.77
2023-01-25T14:32:56.026Z,23.90
2023-01-25T14:36:16.270Z,22.92
2023-01-25T14:39:29.182Z,26.15
2023-01-25T14:42:32.781Z,27.25
2023-01-25T14:45:34.921Z,22.80
2023-01-25T14:48:42.392Z,21.90
2023-01-25T14:51:53.731Z,26.38
2023-01-25T14:55:00.279Z,23.10
2023-01-25T14:58:03.104Z,26.90
2023-01-25T15:01:24.149Z,30.92
2023-01-25T15:04:26.421Z,25.73
2023-01-25T15:07:42.697Z,27.67
2023-01-25T15:10:57.891Z,29.25
2023-01-25T15:14:08.336Z,22.58
2023-01-25T15:17:56.609Z,22.17
2023-01-25T15:20:58.652Z,28.25
2023-01-25T15:24:06.695Z,31.80
2023-01-25T15:27:10.569Z,34.83
2023-01-25T15:30:17.948Z,27.52
2023-01-25T15:33:26.000Z,32.55
2023-01-25T15:36:29.332Z,27.35
2023-01-25T15:39:32.846Z,24.77
2023-01-25T15:42:35.043Z,29.13
2023-01-25T15:45:37.397Z,26.05
2023-01-25T15:48:44.608Z,27.52
2023-01-25T15:51:47.426Z,27.60
2023-01-25T15:54:59.934Z,28.90
2023-01-25T15:58:05.339Z,28.50
2023-01-25T16:01:07.882Z,30.98
2023-01-25T16:04:13.708Z,36.45
2023-01-25T16:07:28.974Z,30.70
2023-01-25T16:10:31.120Z,35.25
2023-01-25T16:13:35.783Z,27.92
2023-01-25T16:16:41.863Z,31.42
2023-01-25T16:19:46.315Z,30.77
2023-01-25T16:22:48.609Z,27.25
2023-01-25T16:25:51.081Z,23.23
2023-01-25T16:28:53.407Z,27.20
2023-01-25T16:31:55.794Z,22.40
2023-01-25T16:34:59.397Z,28.85
2023-01-25T16:38:01.752Z,35.90
2023-01-25T16:41:05.519Z,27.42
2023-01-25T16:44:07.716Z,31.95
2023-01-25T16:47:14.421Z,30.00
2023-01-25T16:50:19.079Z,37.80
2023-01-25T16:53:21.173Z,31.17
2023-01-25T16:56:31.579Z,29.17
2023-01-25T16:59:33.907Z,21.92
2023-01-25T17:02:40.111Z,25.83
2023-01-25T17:05:44.970Z,30.33
2023-01-25T17:08:48.834Z,30.92
2023-01-25T17:11:51.124Z,26.85
2023-01-25T17:14:53.714Z,40.90
2023-01-25T17:17:55.911Z,36.67
2023-01-25T17:21:03.659Z,36.92
2023-01-25T17:24:06.059Z,36.13
2023-01-25T17:27:08.132Z,42.35
2023-01-25T17:30:11.102Z,40.55
2023-01-25T17:33:14.594Z,44.15
2023-01-25T17:36:16.859Z,40.22
2023-01-25T17:39:20.260Z,37.75
2023-01-25T17:42:22.213Z,33.40
2023-01-25T17:45:24.235Z,34.70
2023-01-25T17:48:26.332Z,33.25
2023-01-25T17:51:28.791Z,33.60
2023-01-25T17:54:30.816Z,29.73
2023-01-25T17:57:38.649Z,27.05
2023-01-25T18:00:42.357Z,30.75
2023-01-25T18:03:46.653Z,30.25
2023-01-25T18:06:48.624Z,34.22
2023-01-25T18:09:50.786Z,33.67
2023-01-25T18:13:04.264Z,35.28
2023-01-25T18:16:09.717Z,33.15
2023-01-25T18:19:38.843Z,39.55
2023-01-25T18:22:43.854Z,48.85
2023-01-25T18:25:47.300Z,34.40
2023-01-25T18:28:52.173Z,41.17
2023-01-25T18:31:54.483Z,43.38
2023-01-25T18:34:59.529Z,39.78
2023-01-25T18:38:09.234Z,41.80
2023-01-25T18:41:11.970Z,40.03
2023-01-25T18:44:15.872Z,44.67
2023-01-25T18:47:23.170Z,41.00
2023-01-25T18:50:25.971Z,48.35
2023-01-25T18:53:34.547Z,43.30
2023-01-25T18:59:42.210Z,52.95
2023-01-25T19:02:44.916Z,49.53
2023-01-25T19:05:54.738Z,43.17
2023-01-25T19:08:57.391Z,51.15
2023-01-25T19:12:02.104Z,47.53
2023-01-25T19:15:04.535Z,34.10
2023-01-25T19:18:06.561Z,37.22
2023-01-25T19:21:10.074Z,41.80
2023-01-25T19:24:19.788Z,37.10
2023-01-25T19:27:22.239Z,49.63
2023-01-25T19:30:24.624Z,35.30
2023-01-25T19:33:29.197Z,43.40
2023-01-25T19:36:37.531Z,33.88
2023-01-25T19:39:40.174Z,29.13
2023-01-25T19:42:45.399Z,32.55
2023-01-25T19:45:47.525Z,30.48
2023-01-25T19:48:51.506Z,28.95
2023-01-25T19:51:56.642Z,40.13
2023-01-25T19:55:02.907Z,31.30
2023-01-25T19:58:05.001Z,32.30
2023-01-25T20:01:11.984Z,26.38
2023-01-25T20:04:22.269Z,35.60
2023-01-25T20:07:25.879Z,33.50
2023-01-25T20:10:36.993Z,32.60
2023-01-25T20:13:39.704Z,38.25
2023-01-25T20:16:48.572Z,42.88
2023-01-25T20:19:50.742Z,42.28
2023-01-25T20:22:53.528Z,40.10
2023-01-25T20:25:57.733Z,31.75
2023-01-25T20:29:00.952Z,26.92
2023-01-25T20:32:04.705Z,22.15
2023-01-25T20:35:08.849Z,25.83
2023-01-25T20:38:11.220Z,21.38
2023-01-25T20:41:16.781Z,26.10
2023-01-25T20:44:18.936Z,25.75
2023-01-25T20:47:21.099Z,24.00
2023-01-25T20:50:26.579Z,24.75
2023-01-25T20:53:29.836Z,19.20
2023-01-25T20:56:32.437Z,19.75
2023-01-25T20:59:34.735Z,24.40
2023-01-25T21:02:40.698Z,22.33
2023-01-25T21:05:53.901Z,23.33
2023-01-25T21:08:56.120Z,20.88
2023-01-25T21:11:58.159Z,26.20
2023-01-25T21:15:00.371Z,22.50
2023-01-25T21:18:02.400Z,25.85
2023-01-25T21:21:10.571Z,30.50
2023-01-25T21:24:13.662Z,33.38
2023-01-25T21:27:16.025Z,28.80
2023-01-25T21:30:19.662Z,27.35
2023-01-25T21:33:22.786Z,31.92
2023-01-25T21:36:25.690Z,30.40
2023-01-25T21:39:27.812Z,35.83
2023-01-25T21:42:32.209Z,29.88
2023-01-25T21:45:58.093Z,36.85
2023-01-25T21:49:24.474Z,36.40
2023-01-25T21:52:26.642Z,33.83
2023-01-25T21:55:29.738Z,26.88
2023-01-25T21:58:31.771Z,38.33
2023-01-25T22:01:33.896Z,28.83
2023-01-25T22:04:36.300Z,24.80
2023-01-25T22:07:38.550Z,22.20
2023-01-25T22:10:40.792Z,27.40
2023-01-25T22:13:42.898Z,20.13
2023-01-25T22:16:50.840Z,30.80
2023-01-25T22:19:52.903Z,31.35
2023-01-25T22:22:54.902Z,37.45
2023-01-25T22:26:05.543Z,34.15
2023-01-25T22:29:13.799Z,38.35
2023-01-25T22:32:15.933Z,37.70
2023-01-25T22:35:18.661Z,35.53
2023-01-25T22:38:20.667Z,56.17
2023-01-25T22:41:27.881Z,47.67
2023-01-25T22:44:30.671Z,48.47
2023-01-25T22:47:32.765Z,56.33
2023-01-25T22:50:34.801Z,52.05
2023-01-25T22:53:36.957Z,48.45
2023-01-25T22:56:39.686Z,50.33
2023-01-25T22:59:41.731Z,39.13
2023-01-25T23:02:43.882Z,36.33
2023-01-25T23:05:45.938Z,39.75
2023-01-25T23:08:48.387Z,40.00
2023-01-25T23:11:50.461Z,34.40
2023-01-25T23:14:54.382Z,36.35
2023-01-25T23:18:15.201Z,27.98
2023-01-25T23:21:22.846Z,36.70
2023-01-25T23:24:26.621Z,33.80
2023-01-25T23:27:28.978Z,30.10
2023-01-25T23:30:31.271Z,36.60
2023-01-25T23:33:33.255Z,32.83
2023-01-25T23:36:43.049Z,33.20
2023-01-25T23:39:45.170Z,32.70
2023-01-25T23:42:47.647Z,33.17
2023-01-25T23:45:49.746Z,27.52
2023-01-25T23:48:52.120Z,30.73
2023-01-25T23:51:54.118Z,28.75
2023-01-25T23:54:56.254Z,33.10
2023-01-25T23:57:58.360Z,24.83
